Portland — WDG2201 — position and weather

sailwx.info

Track history (hours):
 
Tides and Currents Weather Stations Pressure Air Temp Water Temp Dewpoint Dewpoint Depression Visibility Wind Speed Wind Dir Waves Ship Positions

Portland

Owner: Shaver Transportation Company, Portland, OR. More information available from US FCC via Universal Licensing System and Coast Guard Vessel Documentation Center.

Last reported at 2017-Feb-23 20:33 UTC. Time now 2017-Feb-23 21:01 UTC.
Position N 45°34' W 122°44'.

Length 27 m; draft 4 m.

Type: Towing. MMSI: 367315814.

Date/timePositionNaut miles runAvg speedWind from/ knotsBaromVisibWave heightAir tempDewpointWater temp
2017-Feb-23 20:33N 45°34' W 122°44'0 0.0
2017-Feb-23 19:33N 45°34' W 122°44'0 0.0
2017-Feb-23 18:33N 45°34' W 122°44'0 0.5
2017-Feb-23 17:33N 45°34' W 122°43'5 5.2
2017-Feb-23 16:34N 45°39' W 122°45'0 0.5
2017-Feb-23 15:32N 45°39' W 122°45'0 0.0
2017-Feb-23 14:32N 45°39' W 122°45'0 0.0
2017-Feb-23 13:32N 45°39' W 122°45'0 0.0
2017-Feb-23 12:32N 45°39' W 122°45'0 0.0
2017-Feb-23 11:32N 45°39' W 122°45'0 0.0
2017-Feb-23 10:32N 45°39' W 122°45'3 2.6
2017-Feb-23 09:33N 45°38' W 122°42'2 2.4
2017-Feb-23 08:32N 45°39' W 122°45'0 0.0
2017-Feb-23 07:32N 45°39' W 122°45'0 0.0
2017-Feb-23 06:32N 45°39' W 122°45'0 0.0
2017-Feb-23 05:32N 45°39' W 122°45'0 0.0
2017-Feb-23 04:32N 45°39' W 122°45'0 0.0
2017-Feb-23 03:32N 45°39' W 122°45'0 0.0
2017-Feb-23 02:29N 45°39' W 122°45'0 0.0
2017-Feb-23 01:29N 45°39' W 122°45'0 0.2
2017-Feb-23 00:33N 45°39' W 122°45'5 5.1
2017-Feb-22 23:31N 45°34' W 122°44'0 0.0
2017-Feb-22 22:28N 45°34' W 122°44'0 0.0
2017-Feb-22 21:31N 45°34' W 122°44'0 0.0
2017-Feb-22 20:31N 45°34' W 122°44'0 0.0
2017-Feb-22 19:31N 45°34' W 122°44'0 0.0
2017-Feb-22 18:31N 45°34' W 122°44'0 0.0
2017-Feb-22 17:31N 45°34' W 122°44'0 0.0
2017-Feb-22 16:31N 45°34' W 122°44'0 0.0
2017-Feb-22 15:31N 45°34' W 122°44'0 0.0
2017-Feb-22 14:31N 45°34' W 122°44'0 0.0
2017-Feb-22 13:31N 45°34' W 122°44'0 0.4
2017-Feb-22 12:33N 45°34' W 122°44'7 7.3
2017-Feb-22 11:34N 45°41' W 122°46'9 8.6
2017-Feb-22 10:33N 45°50' W 122°48'8 8.5
2017-Feb-22 09:34N 45°58' W 122°49'9 8.5
2017-Feb-22 08:33N 46°05' W 122°56'0 0.2
2017-Feb-22 07:31N 46°05' W 122°56'0 0.0
2017-Feb-22 06:31N 46°05' W 122°56'0 0.0
2017-Feb-22 05:28N 46°05' W 122°56'1 1.3
2017-Feb-22 04:31N 46°06' W 122°57'2 1.9
2017-Feb-22 03:32N 46°05' W 122°55'1 0.7
2017-Feb-22 02:32N 46°05' W 122°56'0 0.0
2017-Feb-22 01:32N 46°05' W 122°56'0 0.0
2017-Feb-22 00:32N 46°05' W 122°56'8 7.8
2017-Feb-21 23:34N 45°59' W 122°50'0 0.1
2017-Feb-21 22:33N 45°59' W 122°50'0 0.2
2017-Feb-21 21:34N 45°59' W 122°50'7 7.3
2017-Feb-21 20:33N 46°05' W 122°56'0 0.0
2017-Feb-21 19:33N 46°05' W 122°56'0 0.0
2017-Feb-21 18:33N 46°05' W 122°56'0 0.0
2017-Feb-21 17:33N 46°05' W 122°56'0 0.0
2017-Feb-21 16:33N 46°05' W 122°56'0 0.0
2017-Feb-21 15:33N 46°05' W 122°56'0 0.0
2017-Feb-21 14:30N 46°05' W 122°56'0 0.0
2017-Feb-21 13:33N 46°05' W 122°56'0 0.0
2017-Feb-21 12:33N 46°05' W 122°56'0 0.0
2017-Feb-21 11:27N 46°05' W 122°56'0 0.0
2017-Feb-21 10:33N 46°05' W 122°56'0 0.0
2017-Feb-21 09:33N 46°05' W 122°56'0 0.0
2017-Feb-21 08:33N 46°05' W 122°56'0 0.0
2017-Feb-21 07:33N 46°05' W 122°56'0 0.0
2017-Feb-21 06:33N 46°05' W 122°56'0 0.0
2017-Feb-21 05:30N 46°05' W 122°56'1 0.6
2017-Feb-21 04:34N 46°06' W 122°56'0 0.0
2017-Feb-21 03:33N 46°06' W 122°56'8 7.8
2017-Feb-21 02:34N 45°59' W 122°51'1111.0
2017-Feb-21 01:33N 45°48' W 122°47'10 9.9
2017-Feb-21 00:33N 45°39' W 122°45'2 2.4
2017-Feb-20 23:33N 45°38' W 122°42'1 1.4
2017-Feb-20 22:33N 45°38' W 122°44'4 3.9
2017-Feb-20 21:33N 45°35' W 122°45'1 1.3
2017-Feb-20 20:32N 45°34' W 122°44'0 0.0
2017-Feb-20 19:27N 45°34' W 122°44'0 0.0
2017-Feb-20 18:32N 45°34' W 122°44'0 0.0
2017-Feb-20 17:32N 45°34' W 122°44'0 0.0
2017-Feb-20 16:32N 45°34' W 122°44'0 0.0
2017-Feb-20 15:32N 45°34' W 122°44'0 0.0
2017-Feb-20 14:32N 45°34' W 122°44'0 0.0
2017-Feb-20 13:33N 45°34' W 122°44'0 0.0
2017-Feb-20 12:33N 45°34' W 122°44'0 0.0
2017-Feb-20 11:32N 45°34' W 122°44'0 0.0
2017-Feb-20 10:33N 45°34' W 122°44'0 0.0
2017-Feb-20 09:32N 45°34' W 122°44'0 0.0
2017-Feb-20 08:32N 45°34' W 122°44'0 0.0
2017-Feb-20 07:32N 45°34' W 122°44'0 0.0
2017-Feb-20 06:32N 45°34' W 122°44'0 0.0
2017-Feb-20 05:32N 45°34' W 122°44'0 0.0
2017-Feb-20 04:32N 45°34' W 122°44'0 0.0
2017-Feb-20 03:32N 45°34' W 122°44'0 0.0
2017-Feb-20 02:32N 45°34' W 122°44'0 0.0
2017-Feb-20 01:32N 45°34' W 122°44'0 0.0
2017-Feb-20 00:32N 45°34' W 122°44'2 1.6
2017-Feb-19 23:34N 45°33' W 122°42'0 0.0
2017-Feb-19 22:34N 45°33' W 122°42'2 1.6
2017-Feb-19 21:34N 45°34' W 122°44'0 0.0
2017-Feb-19 20:33N 45°34' W 122°44'0 0.0
2017-Feb-19 19:34N 45°34' W 122°44'0 0.0
2017-Feb-19 18:34N 45°34' W 122°44'0 0.0
2017-Feb-19 17:34N 45°34' W 122°44'0 0.0
2017-Feb-19 16:34N 45°34' W 122°44'0 0.0
2017-Feb-19 15:34N 45°34' W 122°44'0 0.0
2017-Feb-19 14:34N 45°34' W 122°44'0 0.0
2017-Feb-19 13:34N 45°34' W 122°44'0 0.0
2017-Feb-19 12:34N 45°34' W 122°44'0 0.0
2017-Feb-19 11:34N 45°34' W 122°44'0 0.0
2017-Feb-19 10:34N 45°34' W 122°44'0 0.0
2017-Feb-19 09:34N 45°34' W 122°44'0 0.0
2017-Feb-19 08:34N 45°34' W 122°44'0 0.0
2017-Feb-19 07:33N 45°34' W 122°44'0 0.0
2017-Feb-19 06:33N 45°34' W 122°44'3 3.5
2017-Feb-19 05:34N 45°36' W 122°47'0 0.2
2017-Feb-19 04:34N 45°36' W 122°47'3 3.1
2017-Feb-19 03:28N 45°34' W 122°44'0 0.0
2017-Feb-19 02:28N 45°34' W 122°44'0 0.0
2017-Feb-19 01:31N 45°34' W 122°44'0 0.0
2017-Feb-19 00:31N 45°34' W 122°44'0 0.0
2017-Feb-18 23:28N 45°34' W 122°44'0 0.0
2017-Feb-18 22:28N 45°34' W 122°44'0 0.0
2017-Feb-18 21:31N 45°34' W 122°44'0 0.0
2017-Feb-18 20:31N 45°34' W 122°44'0 0.0
2017-Feb-18 19:31N 45°34' W 122°44'0 0.0
2017-Feb-18 18:31N 45°34' W 122°44'0 0.0
2017-Feb-18 17:31N 45°34' W 122°44'3 2.6
2017-Feb-18 16:34N 45°32' W 122°41'1 0.7
2017-Feb-18 15:33N 45°32' W 122°40'1 1.3
2017-Feb-18 14:34N 45°33' W 122°41'2 1.9
2017-Feb-18 13:34N 45°34' W 122°44'0 0.0
2017-Feb-18 12:34N 45°34' W 122°44'0 0.0
2017-Feb-18 11:33N 45°34' W 122°44'0 0.0
2017-Feb-18 10:33N 45°34' W 122°44'0 0.0
2017-Feb-18 09:34N 45°34' W 122°44'0 0.0
2017-Feb-18 08:34N 45°34' W 122°44'0 0.0
2017-Feb-18 07:34N 45°34' W 122°44'0 0.0
2017-Feb-18 06:34N 45°34' W 122°44'0 0.0
2017-Feb-18 05:33N 45°34' W 122°44'0 0.0
2017-Feb-18 04:34N 45°34' W 122°44'0 0.3
2017-Feb-18 03:33N 45°34' W 122°44'3 2.8
2017-Feb-18 02:34N 45°36' W 122°47'2 2.2
2017-Feb-18 01:34N 45°38' W 122°47'1 1.2
2017-Feb-18 00:33N 45°39' W 122°45'0 0.0
2017-Feb-17 23:33N 45°39' W 122°45'0 0.0
2017-Feb-17 22:30N 45°39' W 122°45'0 0.0
2017-Feb-17 21:33N 45°39' W 122°45'0 0.0
2017-Feb-17 20:33N 45°39' W 122°45'5 5.0
2017-Feb-17 19:31N 45°34' W 122°44'0 0.0
2017-Feb-17 18:31N 45°34' W 122°44'0 0.0
2017-Feb-17 17:31N 45°34' W 122°44'0 0.0
2017-Feb-17 16:31N 45°34' W 122°44'0 0.0
2017-Feb-17 15:31N 45°34' W 122°44'0 0.0
2017-Feb-17 14:31N 45°34' W 122°44'0 0.0
2017-Feb-17 13:31N 45°34' W 122°44'0 0.0
2017-Feb-17 12:22N 45°34' W 122°44'0 0.0
2017-Feb-17 11:31N 45°34' W 122°44'0 0.0
2017-Feb-17 10:31N 45°34' W 122°44'3 3.1
2017-Feb-17 09:34N 45°36' W 122°47'1 1.1
2017-Feb-17 08:33N 45°37' W 122°47'7 6.7
2017-Feb-17 07:33N 45°32' W 122°40'1 1.1
2017-Feb-17 06:33N 45°33' W 122°42'2 1.7
2017-Feb-17 05:33N 45°34' W 122°44'0 0.0
2017-Feb-17 04:33N 45°34' W 122°44'6 5.5
2017-Feb-17 03:33N 45°39' W 122°46'2 1.7
2017-Feb-17 02:34N 45°39' W 122°44'1 0.8
2017-Feb-17 01:33N 45°38' W 122°45'0 0.2
2017-Feb-17 00:33N 45°39' W 122°45'1 0.9
2017-Feb-16 23:34N 45°38' W 122°44'1 1.1
2017-Feb-16 22:34N 45°39' W 122°45'0 0.3
2017-Feb-16 21:34N 45°39' W 122°45'0 0.0
2017-Feb-16 20:34N 45°39' W 122°45'0 0.0
2017-Feb-16 19:33N 45°39' W 122°45'0 0.2
2017-Feb-16 18:34N 45°39' W 122°45'1 0.6
2017-Feb-16 17:34N 45°39' W 122°44'0 0.5
2017-Feb-16 16:33N 45°39' W 122°45'2 1.5
2017-Feb-16 15:33N 45°38' W 122°43'0 0.5
2017-Feb-16 14:34N 45°38' W 122°42'0 0.2
2017-Feb-16 13:33N 45°38' W 122°43'1 1.5
2017-Feb-16 12:34N 45°39' W 122°45'0 0.0
2017-Feb-16 11:34N 45°39' W 122°45'0 0.0
2017-Feb-16 10:33N 45°39' W 122°45'0 0.0
2017-Feb-16 09:33N 45°39' W 122°45'0 0.0
2017-Feb-16 08:33N 45°39' W 122°45'4 3.5
2017-Feb-16 07:32N 45°35' W 122°46'2 2.2
2017-Feb-16 06:32N 45°34' W 122°44'0 0.0
2017-Feb-16 05:29N 45°34' W 122°44'0 0.0
2017-Feb-16 04:32N 45°34' W 122°44'0 0.0
2017-Feb-16 03:32N 45°34' W 122°44'0 0.0
2017-Feb-16 02:29N 45°34' W 122°44'0 0.0
2017-Feb-16 01:32N 45°34' W 122°44'3 2.8
2017-Feb-16 00:33N 45°36' W 122°46'2 2.2
2017-Feb-15 23:33N 45°34' W 122°44'1 0.6
2017-Feb-15 22:33N 45°34' W 122°44'0 0.0
2017-Feb-15 21:33N 45°34' W 122°44'5 5.3
2017-Feb-15 20:33N 45°38' W 122°47'10 9.7
2017-Feb-15 19:33N 45°48' W 122°47'9 9.3
2017-Feb-15 18:33N 45°57' W 122°49'9 9.3
2017-Feb-15 17:33N 46°05' W 122°56'0 0.2
2017-Feb-15 16:32N 46°05' W 122°56'0 0.0
2017-Feb-15 15:32N 46°05' W 122°56'0 0.0
2017-Feb-15 14:32N 46°05' W 122°56'0 0.0
2017-Feb-15 13:33N 46°05' W 122°56'0 0.0
2017-Feb-15 12:33N 46°05' W 122°56'0 0.0
2017-Feb-15 11:33N 46°05' W 122°56'1 0.7
2017-Feb-15 10:33N 46°06' W 122°57'1 0.7
2017-Feb-15 09:33N 46°05' W 122°56'0 0.0
2017-Feb-15 08:26N 46°05' W 122°56'1 0.8
2017-Feb-15 07:34N 46°05' W 122°55'7 7.0
2017-Feb-15 06:33N 45°59' W 122°50'0 0.4
2017-Feb-15 05:31N 45°59' W 122°50'1 0.5
2017-Feb-15 04:33N 45°59' W 122°50'8 7.2
2017-Feb-15 03:29N 46°05' W 122°56'0 0.0
2017-Feb-15 02:32N 46°05' W 122°56'0 0.0
2017-Feb-15 01:32N 46°05' W 122°56'0 0.0
2017-Feb-15 00:32N 46°05' W 122°56'0 0.0
2017-Feb-14 23:32N 46°05' W 122°56'0 0.0
2017-Feb-14 22:33N 46°05' W 122°56'1 0.8
2017-Feb-14 21:33N 46°06' W 122°57'4 3.5
2017-Feb-14 20:34N 46°04' W 122°53'2 2.0
2017-Feb-14 19:34N 46°02' W 122°53'1 0.8
2017-Feb-14 18:33N 46°02' W 122°53'4 4.4
2017-Feb-14 17:33N 46°06' W 122°57'0 0.1
2017-Feb-14 16:33N 46°06' W 122°57'1 0.8
2017-Feb-14 15:32N 46°05' W 122°56'1 0.6
2017-Feb-14 14:34N 46°06' W 122°56'2 1.5
2017-Feb-14 13:33N 46°05' W 122°54'1 0.7
2017-Feb-14 12:32N 46°05' W 122°55'0 0.0
2017-Feb-14 11:32N 46°05' W 122°55'0 0.4
2017-Feb-14 10:33N 46°05' W 122°56'0 0.0
2017-Feb-14 09:33N 46°05' W 122°56'0 0.0
2017-Feb-14 08:33N 46°05' W 122°56'0 0.0
2017-Feb-14 07:28N 46°05' W 122°56'0 0.0
2017-Feb-14 06:31N 46°05' W 122°56'3 3.5
2017-Feb-14 05:34N 46°03' W 122°53'4 4.3
2017-Feb-14 04:34N 45°59' W 122°50'1 0.5
2017-Feb-14 03:34N 45°59' W 122°50'1 0.6
2017-Feb-14 02:33N 45°59' W 122°50'8 7.7
2017-Feb-14 01:34N 46°05' W 122°56'0 0.0
2017-Feb-14 00:28N 46°05' W 122°56'0 0.0
2017-Feb-13 23:31N 46°05' W 122°56'0 0.0
2017-Feb-13 22:31N 46°05' W 122°56'0 0.0
2017-Feb-13 21:31N 46°05' W 122°56'  
Track history (hours):
 
Tides and Currents Weather Stations Pressure Air Temp Water Temp Dewpoint Dewpoint Depression Visibility Wind Speed Wind Dir Waves Ship Positions

Portland

Owner: Shaver Transportation Company, Portland, OR. More information available from US FCC via Universal Licensing System and Coast Guard Vessel Documentation Center.

Last reported at 2017-Feb-23 20:33 UTC. Time now 2017-Feb-23 21:01 UTC.
Position N 45°34' W 122°44'.

Length 27 m; draft 4 m.

Type: Towing. MMSI: 367315814.

Date/timePositionNaut miles runAvg speedWind from/ knotsBaromVisibWave heightAir tempDewpointWater temp
2017-Feb-23 20:33N 45°34' W 122°44'0 0.0
2017-Feb-23 19:33N 45°34' W 122°44'0 0.0
2017-Feb-23 18:33N 45°34' W 122°44'0 0.5
2017-Feb-23 17:33N 45°34' W 122°43'5 5.2
2017-Feb-23 16:34N 45°39' W 122°45'0 0.5
2017-Feb-23 15:32N 45°39' W 122°45'0 0.0
2017-Feb-23 14:32N 45°39' W 122°45'0 0.0
2017-Feb-23 13:32N 45°39' W 122°45'0 0.0
2017-Feb-23 12:32N 45°39' W 122°45'0 0.0
2017-Feb-23 11:32N 45°39' W 122°45'0 0.0
2017-Feb-23 10:32N 45°39' W 122°45'3 2.6
2017-Feb-23 09:33N 45°38' W 122°42'2 2.4
2017-Feb-23 08:32N 45°39' W 122°45'0 0.0
2017-Feb-23 07:32N 45°39' W 122°45'0 0.0
2017-Feb-23 06:32N 45°39' W 122°45'0 0.0
2017-Feb-23 05:32N 45°39' W 122°45'0 0.0
2017-Feb-23 04:32N 45°39' W 122°45'0 0.0
2017-Feb-23 03:32N 45°39' W 122°45'0 0.0
2017-Feb-23 02:29N 45°39' W 122°45'0 0.0
2017-Feb-23 01:29N 45°39' W 122°45'0 0.2
2017-Feb-23 00:33N 45°39' W 122°45'5 5.1
2017-Feb-22 23:31N 45°34' W 122°44'0 0.0
2017-Feb-22 22:28N 45°34' W 122°44'0 0.0
2017-Feb-22 21:31N 45°34' W 122°44'0 0.0
2017-Feb-22 20:31N 45°34' W 122°44'0 0.0
2017-Feb-22 19:31N 45°34' W 122°44'0 0.0
2017-Feb-22 18:31N 45°34' W 122°44'0 0.0
2017-Feb-22 17:31N 45°34' W 122°44'0 0.0
2017-Feb-22 16:31N 45°34' W 122°44'0 0.0
2017-Feb-22 15:31N 45°34' W 122°44'0 0.0
2017-Feb-22 14:31N 45°34' W 122°44'0 0.0
2017-Feb-22 13:31N 45°34' W 122°44'0 0.4
2017-Feb-22 12:33N 45°34' W 122°44'7 7.3
2017-Feb-22 11:34N 45°41' W 122°46'9 8.6
2017-Feb-22 10:33N 45°50' W 122°48'8 8.5
2017-Feb-22 09:34N 45°58' W 122°49'9 8.5
2017-Feb-22 08:33N 46°05' W 122°56'0 0.2
2017-Feb-22 07:31N 46°05' W 122°56'0 0.0
2017-Feb-22 06:31N 46°05' W 122°56'0 0.0
2017-Feb-22 05:28N 46°05' W 122°56'1 1.3
2017-Feb-22 04:31N 46°06' W 122°57'2 1.9
2017-Feb-22 03:32N 46°05' W 122°55'1 0.7
2017-Feb-22 02:32N 46°05' W 122°56'0 0.0
2017-Feb-22 01:32N 46°05' W 122°56'0 0.0
2017-Feb-22 00:32N 46°05' W 122°56'8 7.8
2017-Feb-21 23:34N 45°59' W 122°50'0 0.1
2017-Feb-21 22:33N 45°59' W 122°50'0 0.2
2017-Feb-21 21:34N 45°59' W 122°50'7 7.3
2017-Feb-21 20:33N 46°05' W 122°56'0 0.0
2017-Feb-21 19:33N 46°05' W 122°56'0 0.0
2017-Feb-21 18:33N 46°05' W 122°56'0 0.0
2017-Feb-21 17:33N 46°05' W 122°56'0 0.0
2017-Feb-21 16:33N 46°05' W 122°56'0 0.0
2017-Feb-21 15:33N 46°05' W 122°56'0 0.0
2017-Feb-21 14:30N 46°05' W 122°56'0 0.0
2017-Feb-21 13:33N 46°05' W 122°56'0 0.0
2017-Feb-21 12:33N 46°05' W 122°56'0 0.0
2017-Feb-21 11:27N 46°05' W 122°56'0 0.0
2017-Feb-21 10:33N 46°05' W 122°56'0 0.0
2017-Feb-21 09:33N 46°05' W 122°56'0 0.0
2017-Feb-21 08:33N 46°05' W 122°56'0 0.0
2017-Feb-21 07:33N 46°05' W 122°56'0 0.0
2017-Feb-21 06:33N 46°05' W 122°56'0 0.0
2017-Feb-21 05:30N 46°05' W 122°56'1 0.6
2017-Feb-21 04:34N 46°06' W 122°56'0 0.0
2017-Feb-21 03:33N 46°06' W 122°56'8 7.8
2017-Feb-21 02:34N 45°59' W 122°51'1111.0
2017-Feb-21 01:33N 45°48' W 122°47'10 9.9
2017-Feb-21 00:33N 45°39' W 122°45'2 2.4
2017-Feb-20 23:33N 45°38' W 122°42'1 1.4
2017-Feb-20 22:33N 45°38' W 122°44'4 3.9
2017-Feb-20 21:33N 45°35' W 122°45'1 1.3
2017-Feb-20 20:32N 45°34' W 122°44'0 0.0
2017-Feb-20 19:27N 45°34' W 122°44'0 0.0
2017-Feb-20 18:32N 45°34' W 122°44'0 0.0
2017-Feb-20 17:32N 45°34' W 122°44'0 0.0
2017-Feb-20 16:32N 45°34' W 122°44'0 0.0
2017-Feb-20 15:32N 45°34' W 122°44'0 0.0
2017-Feb-20 14:32N 45°34' W 122°44'0 0.0
2017-Feb-20 13:33N 45°34' W 122°44'0 0.0
2017-Feb-20 12:33N 45°34' W 122°44'0 0.0
2017-Feb-20 11:32N 45°34' W 122°44'0 0.0
2017-Feb-20 10:33N 45°34' W 122°44'0 0.0
2017-Feb-20 09:32N 45°34' W 122°44'0 0.0
2017-Feb-20 08:32N 45°34' W 122°44'0 0.0
2017-Feb-20 07:32N 45°34' W 122°44'0 0.0
2017-Feb-20 06:32N 45°34' W 122°44'0 0.0
2017-Feb-20 05:32N 45°34' W 122°44'0 0.0
2017-Feb-20 04:32N 45°34' W 122°44'0 0.0
2017-Feb-20 03:32N 45°34' W 122°44'0 0.0
2017-Feb-20 02:32N 45°34' W 122°44'0 0.0
2017-Feb-20 01:32N 45°34' W 122°44'0 0.0
2017-Feb-20 00:32N 45°34' W 122°44'2 1.6
2017-Feb-19 23:34N 45°33' W 122°42'0 0.0
2017-Feb-19 22:34N 45°33' W 122°42'2 1.6
2017-Feb-19 21:34N 45°34' W 122°44'0 0.0
2017-Feb-19 20:33N 45°34' W 122°44'0 0.0
2017-Feb-19 19:34N 45°34' W 122°44'0 0.0
2017-Feb-19 18:34N 45°34' W 122°44'0 0.0
2017-Feb-19 17:34N 45°34' W 122°44'0 0.0
2017-Feb-19 16:34N 45°34' W 122°44'0 0.0
2017-Feb-19 15:34N 45°34' W 122°44'0 0.0
2017-Feb-19 14:34N 45°34' W 122°44'0 0.0
2017-Feb-19 13:34N 45°34' W 122°44'0 0.0
2017-Feb-19 12:34N 45°34' W 122°44'0 0.0
2017-Feb-19 11:34N 45°34' W 122°44'0 0.0
2017-Feb-19 10:34N 45°34' W 122°44'0 0.0
2017-Feb-19 09:34N 45°34' W 122°44'0 0.0
2017-Feb-19 08:34N 45°34' W 122°44'0 0.0
2017-Feb-19 07:33N 45°34' W 122°44'0 0.0
2017-Feb-19 06:33N 45°34' W 122°44'3 3.5
2017-Feb-19 05:34N 45°36' W 122°47'0 0.2
2017-Feb-19 04:34N 45°36' W 122°47'3 3.1
2017-Feb-19 03:28N 45°34' W 122°44'0 0.0
2017-Feb-19 02:28N 45°34' W 122°44'0 0.0
2017-Feb-19 01:31N 45°34' W 122°44'0 0.0
2017-Feb-19 00:31N 45°34' W 122°44'0 0.0
2017-Feb-18 23:28N 45°34' W 122°44'0 0.0
2017-Feb-18 22:28N 45°34' W 122°44'0 0.0
2017-Feb-18 21:31N 45°34' W 122°44'0 0.0
2017-Feb-18 20:31N 45°34' W 122°44'0 0.0
2017-Feb-18 19:31N 45°34' W 122°44'0 0.0
2017-Feb-18 18:31N 45°34' W 122°44'0 0.0
2017-Feb-18 17:31N 45°34' W 122°44'3 2.6
2017-Feb-18 16:34N 45°32' W 122°41'1 0.7
2017-Feb-18 15:33N 45°32' W 122°40'1 1.3
2017-Feb-18 14:34N 45°33' W 122°41'2 1.9
2017-Feb-18 13:34N 45°34' W 122°44'0 0.0
2017-Feb-18 12:34N 45°34' W 122°44'0 0.0
2017-Feb-18 11:33N 45°34' W 122°44'0 0.0
2017-Feb-18 10:33N 45°34' W 122°44'0 0.0
2017-Feb-18 09:34N 45°34' W 122°44'0 0.0
2017-Feb-18 08:34N 45°34' W 122°44'0 0.0
2017-Feb-18 07:34N 45°34' W 122°44'0 0.0
2017-Feb-18 06:34N 45°34' W 122°44'0 0.0
2017-Feb-18 05:33N 45°34' W 122°44'0 0.0
2017-Feb-18 04:34N 45°34' W 122°44'0 0.3
2017-Feb-18 03:33N 45°34' W 122°44'3 2.8
2017-Feb-18 02:34N 45°36' W 122°47'2 2.2
2017-Feb-18 01:34N 45°38' W 122°47'1 1.2
2017-Feb-18 00:33N 45°39' W 122°45'0 0.0
2017-Feb-17 23:33N 45°39' W 122°45'0 0.0
2017-Feb-17 22:30N 45°39' W 122°45'0 0.0
2017-Feb-17 21:33N 45°39' W 122°45'0 0.0
2017-Feb-17 20:33N 45°39' W 122°45'5 5.0
2017-Feb-17 19:31N 45°34' W 122°44'0 0.0
2017-Feb-17 18:31N 45°34' W 122°44'0 0.0
2017-Feb-17 17:31N 45°34' W 122°44'0 0.0
2017-Feb-17 16:31N 45°34' W 122°44'0 0.0
2017-Feb-17 15:31N 45°34' W 122°44'0 0.0
2017-Feb-17 14:31N 45°34' W 122°44'0 0.0
2017-Feb-17 13:31N 45°34' W 122°44'0 0.0
2017-Feb-17 12:22N 45°34' W 122°44'0 0.0
2017-Feb-17 11:31N 45°34' W 122°44'0 0.0
2017-Feb-17 10:31N 45°34' W 122°44'3 3.1
2017-Feb-17 09:34N 45°36' W 122°47'1 1.1
2017-Feb-17 08:33N 45°37' W 122°47'7 6.7
2017-Feb-17 07:33N 45°32' W 122°40'1 1.1
2017-Feb-17 06:33N 45°33' W 122°42'2 1.7
2017-Feb-17 05:33N 45°34' W 122°44'0 0.0
2017-Feb-17 04:33N 45°34' W 122°44'6 5.5
2017-Feb-17 03:33N 45°39' W 122°46'2 1.7
2017-Feb-17 02:34N 45°39' W 122°44'1 0.8
2017-Feb-17 01:33N 45°38' W 122°45'0 0.2
2017-Feb-17 00:33N 45°39' W 122°45'1 0.9
2017-Feb-16 23:34N 45°38' W 122°44'1 1.1
2017-Feb-16 22:34N 45°39' W 122°45'0 0.3
2017-Feb-16 21:34N 45°39' W 122°45'0 0.0
2017-Feb-16 20:34N 45°39' W 122°45'0 0.0
2017-Feb-16 19:33N 45°39' W 122°45'0 0.2
2017-Feb-16 18:34N 45°39' W 122°45'1 0.6
2017-Feb-16 17:34N 45°39' W 122°44'0 0.5
2017-Feb-16 16:33N 45°39' W 122°45'2 1.5
2017-Feb-16 15:33N 45°38' W 122°43'0 0.5
2017-Feb-16 14:34N 45°38' W 122°42'0 0.2
2017-Feb-16 13:33N 45°38' W 122°43'1 1.5
2017-Feb-16 12:34N 45°39' W 122°45'0 0.0
2017-Feb-16 11:34N 45°39' W 122°45'0 0.0
2017-Feb-16 10:33N 45°39' W 122°45'0 0.0
2017-Feb-16 09:33N 45°39' W 122°45'0 0.0
2017-Feb-16 08:33N 45°39' W 122°45'4 3.5
2017-Feb-16 07:32N 45°35' W 122°46'2 2.2
2017-Feb-16 06:32N 45°34' W 122°44'0 0.0
2017-Feb-16 05:29N 45°34' W 122°44'0 0.0
2017-Feb-16 04:32N 45°34' W 122°44'0 0.0
2017-Feb-16 03:32N 45°34' W 122°44'0 0.0
2017-Feb-16 02:29N 45°34' W 122°44'0 0.0
2017-Feb-16 01:32N 45°34' W 122°44'3 2.8
2017-Feb-16 00:33N 45°36' W 122°46'2 2.2
2017-Feb-15 23:33N 45°34' W 122°44'1 0.6
2017-Feb-15 22:33N 45°34' W 122°44'0 0.0
2017-Feb-15 21:33N 45°34' W 122°44'5 5.3
2017-Feb-15 20:33N 45°38' W 122°47'10 9.7
2017-Feb-15 19:33N 45°48' W 122°47'9 9.3
2017-Feb-15 18:33N 45°57' W 122°49'9 9.3
2017-Feb-15 17:33N 46°05' W 122°56'0 0.2
2017-Feb-15 16:32N 46°05' W 122°56'0 0.0
2017-Feb-15 15:32N 46°05' W 122°56'0 0.0
2017-Feb-15 14:32N 46°05' W 122°56'0 0.0
2017-Feb-15 13:33N 46°05' W 122°56'0 0.0
2017-Feb-15 12:33N 46°05' W 122°56'0 0.0
2017-Feb-15 11:33N 46°05' W 122°56'1 0.7
2017-Feb-15 10:33N 46°06' W 122°57'1 0.7
2017-Feb-15 09:33N 46°05' W 122°56'0 0.0
2017-Feb-15 08:26N 46°05' W 122°56'1 0.8
2017-Feb-15 07:34N 46°05' W 122°55'7 7.0
2017-Feb-15 06:33N 45°59' W 122°50'0 0.4
2017-Feb-15 05:31N 45°59' W 122°50'1 0.5
2017-Feb-15 04:33N 45°59' W 122°50'8 7.2
2017-Feb-15 03:29N 46°05' W 122°56'0 0.0
2017-Feb-15 02:32N 46°05' W 122°56'0 0.0
2017-Feb-15 01:32N 46°05' W 122°56'0 0.0
2017-Feb-15 00:32N 46°05' W 122°56'0 0.0
2017-Feb-14 23:32N 46°05' W 122°56'0 0.0
2017-Feb-14 22:33N 46°05' W 122°56'1 0.8
2017-Feb-14 21:33N 46°06' W 122°57'4 3.5
2017-Feb-14 20:34N 46°04' W 122°53'2 2.0
2017-Feb-14 19:34N 46°02' W 122°53'1 0.8
2017-Feb-14 18:33N 46°02' W 122°53'4 4.4
2017-Feb-14 17:33N 46°06' W 122°57'0 0.1
2017-Feb-14 16:33N 46°06' W 122°57'1 0.8
2017-Feb-14 15:32N 46°05' W 122°56'1 0.6
2017-Feb-14 14:34N 46°06' W 122°56'2 1.5
2017-Feb-14 13:33N 46°05' W 122°54'1 0.7
2017-Feb-14 12:32N 46°05' W 122°55'0 0.0
2017-Feb-14 11:32N 46°05' W 122°55'0 0.4
2017-Feb-14 10:33N 46°05' W 122°56'0 0.0
2017-Feb-14 09:33N 46°05' W 122°56'0 0.0
2017-Feb-14 08:33N 46°05' W 122°56'0 0.0
2017-Feb-14 07:28N 46°05' W 122°56'0 0.0
2017-Feb-14 06:31N 46°05' W 122°56'3 3.5
2017-Feb-14 05:34N 46°03' W 122°53'4 4.3
2017-Feb-14 04:34N 45°59' W 122°50'1 0.5
2017-Feb-14 03:34N 45°59' W 122°50'1 0.6
2017-Feb-14 02:33N 45°59' W 122°50'8 7.7
2017-Feb-14 01:34N 46°05' W 122°56'0 0.0
2017-Feb-14 00:28N 46°05' W 122°56'0 0.0
2017-Feb-13 23:31N 46°05' W 122°56'0 0.0
2017-Feb-13 22:31N 46°05' W 122°56'0 0.0
2017-Feb-13 21:31N 46°05' W 122°56'  

Dump ship's entire track history